Time;durP1;ratioP1;P1;durP2;ratioP2;P2;SDS_P1;SDS_P2;PMS_P1;PMS_P2;Temp;Humidity;BMP_temperature;BMP_pressure;BME280_temperature;BME280_humidity;BME280_pressure;Samples;Min_cycle;Max_cycle;Signal;HPM_P1;HPM_P2
2022/11/13 00:01:16;;;;;;;61.67;11.20;;;8.50;99.90;;;;;;941777;149;27768;-79
2022/11/13 00:03:42;;;;;;;47.37;11.27;;;8.50;99.90;;;;;;941803;149;27245;-77
2022/11/13 00:06:09;;;;;;;51.27;13.30;;;8.50;99.90;;;;;;941130;149;27689;-77
2022/11/13 00:08:36;;;;;;;59.63;11.80;;;8.50;99.90;;;;;;940596;149;27387;-79
2022/11/13 00:11:08;;;;;;;42.50;11.40;;;8.50;99.90;;;;;;918472;152;27453;-80
2022/11/13 00:13:34;;;;;;;46.00;11.30;;;8.50;99.90;;;;;;917777;153;27353;-80
2022/11/13 00:16:04;;;;;;;62.67;13.17;;;8.50;99.90;;;;;;929483;151;27420;-80
2022/11/13 00:18:30;;;;;;;52.20;12.00;;;8.50;99.90;;;;;;929316;151;27372;-80
2022/11/13 00:20:57;;;;;;;41.37;12.40;;;8.50;99.90;;;;;;929108;151;27505;-80
2022/11/13 00:23:23;;;;;;;52.07;12.77;;;8.50;99.90;;;;;;929696;151;27392;-80
2022/11/13 00:25:50;;;;;;;53.10;11.80;;;8.50;99.90;;;;;;929102;151;27347;-78
2022/11/13 00:28:17;;;;;;;72.03;15.67;;;8.50;99.90;;;;;;929187;151;27422;-79
2022/11/13 00:30:43;;;;;;;58.60;13.60;;;8.50;99.90;;;;;;929489;151;27393;-77
2022/11/13 00:33:10;;;;;;;80.73;16.07;;;8.50;99.90;;;;;;923310;151;28134;-77
2022/11/13 00:35:36;;;;;;;87.40;14.27;;;8.60;99.90;;;;;;940364;149;27283;-77
2022/11/13 00:38:03;;;;;;;72.83;14.53;;;8.60;99.90;;;;;;915047;151;27386;-79
2022/11/13 00:40:30;;;;;;;77.43;13.23;;;8.50;99.90;;;;;;917215;153;27429;-79
2022/11/13 00:42:56;;;;;;;76.50;14.47;;;8.60;99.90;;;;;;933996;151;27332;-79
2022/11/13 00:45:23;;;;;;;66.17;14.67;;;8.60;99.90;;;;;;934017;151;27404;-79
2022/11/13 00:47:49;;;;;;;70.00;14.80;;;8.60;99.90;;;;;;933736;151;27384;-78
2022/11/13 00:50:16;;;;;;;54.50;12.93;;;8.60;99.90;;;;;;933685;151;27823;-78
2022/11/13 00:52:42;;;;;;;55.83;11.40;;;8.60;99.90;;;;;;934572;151;27449;-78
2022/11/13 00:55:09;;;;;;;39.23;9.40;;;8.60;99.90;;;;;;934088;151;27784;-78
2022/11/13 00:57:36;;;;;;;36.13;9.23;;;8.60;99.90;;;;;;934815;150;27464;-78
2022/11/13 01:00:02;;;;;;;45.07;9.33;;;8.60;99.90;;;;;;932477;151;27527;-79
2022/11/13 01:02:29;;;;;;;43.23;10.40;;;8.60;99.90;;;;;;928592;152;27332;-79
2022/11/13 01:04:55;;;;;;;32.73;9.13;;;8.60;99.90;;;;;;927592;152;27733;-79
2022/11/13 01:07:22;;;;;;;30.13;9.00;;;8.50;99.90;;;;;;928322;152;27361;-80
2022/11/13 01:09:52;;;;;;;42.80;10.40;;;8.50;99.90;;;;;;928342;152;27362;-80
2022/11/13 01:12:18;;;;;;;52.17;10.63;;;8.50;99.90;;;;;;928485;152;27474;-80
2022/11/13 01:14:45;;;;;;;35.37;9.80;;;8.50;99.90;;;;;;912268;153;27418;-80
2022/11/13 01:17:11;;;;;;;49.77;10.33;;;8.50;99.90;;;;;;935525;149;27330;-80
2022/11/13 01:19:38;;;;;;;46.67;9.53;;;8.40;99.90;;;;;;912333;154;27391;-80
2022/11/13 01:22:04;;;;;;;67.30;12.23;;;8.40;99.90;;;;;;923799;152;27393;-80
2022/11/13 01:24:31;;;;;;;41.83;10.10;;;8.40;99.90;;;;;;923433;152;27475;-80
2022/11/13 01:26:58;;;;;;;42.63;10.30;;;8.30;99.90;;;;;;923641;152;27381;-78
2022/11/13 01:29:24;;;;;;;48.30;11.10;;;8.30;99.90;;;;;;923862;152;27354;-78
2022/11/13 01:31:51;;;;;;;47.73;9.30;;;8.30;99.90;;;;;;923802;152;27318;-79
2022/11/13 01:34:17;;;;;;;55.60;10.80;;;8.30;99.90;;;;;;923450;152;27552;-79
2022/11/13 01:36:44;;;;;;;34.07;9.27;;;8.20;99.90;;;;;;910842;152;27375;-78
2022/11/13 01:39:11;;;;;;;25.57;8.47;;;8.20;99.90;;;;;;935342;149;27372;-78
2022/11/13 01:41:37;;;;;;;34.80;9.33;;;8.20;99.90;;;;;;909189;152;27490;-78
2022/11/13 01:44:04;;;;;;;55.00;9.70;;;8.10;99.90;;;;;;923007;152;27303;-78
2022/11/13 01:46:39;;;;;;;44.97;9.53;;;8.10;99.90;;;;;;934550;147;27325;-78
2022/11/13 01:49:09;;;;;;;48.10;9.73;;;8.10;99.90;;;;;;931901;151;27840;-77
2022/11/13 01:51:59;;;;;;;52.13;9.37;;;8.10;99.90;;;;;;935215;149;27348;-80
2022/11/13 01:54:26;;;;;;;44.77;8.97;;;8.00;99.90;;;;;;935127;149;27631;-78
2022/11/13 01:56:52;;;;;;;57.97;10.27;;;8.00;99.90;;;;;;933810;149;27870;-78
2022/11/13 01:59:19;;;;;;;28.97;7.93;;;8.00;99.90;;;;;;935156;149;27442;-79
2022/11/13 02:01:46;;;;;;;49.00;8.07;;;7.90;99.90;;;;;;934088;149;27395;-79
2022/11/13 02:04:12;;;;;;;57.07;9.60;;;7.90;99.90;;;;;;934271;149;27321;-79
2022/11/13 02:06:42;;;;;;;41.67;8.50;;;7.90;99.90;;;;;;938349;150;27476;-78
2022/11/13 02:09:08;;;;;;;47.87;8.57;;;7.90;99.90;;;;;;938476;150;27498;-78
2022/11/13 02:11:35;;;;;;;29.53;7.43;;;7.90;99.90;;;;;;938592;150;27477;-78
2022/11/13 02:14:01;;;;;;;38.73;8.03;;;7.90;99.90;;;;;;938329;150;27382;-78
2022/11/13 02:16:28;;;;;;;28.53;6.73;;;7.90;99.90;;;;;;935306;150;27745;-78
2022/11/13 02:18:55;;;;;;;64.90;9.33;;;7.90;99.90;;;;;;934187;149;27371;-79
2022/11/13 02:21:24;;;;;;;38.20;7.73;;;7.90;99.90;;;;;;934120;149;27316;-78
2022/11/13 02:23:50;;;;;;;24.00;8.07;;;7.90;99.90;;;;;;933986;149;27428;-78
2022/11/13 02:26:17;;;;;;;46.60;8.93;;;7.90;99.90;;;;;;933397;149;27333;-78
2022/11/13 02:28:43;;;;;;;38.53;8.43;;;7.80;99.90;;;;;;934494;149;27356;-78
2022/11/13 02:31:10;;;;;;;39.43;7.73;;;7.80;99.90;;;;;;918409;151;27424;-78
2022/11/13 02:33:37;;;;;;;47.40;8.03;;;7.80;99.90;;;;;;924732;151;27318;-78
2022/11/13 02:36:03;;;;;;;70.73;9.90;;;7.80;99.90;;;;;;917728;151;27371;-78
2022/11/13 02:38:30;;;;;;;59.93;9.90;;;7.80;99.90;;;;;;939231;148;27895;-78
2022/11/13 02:40:56;;;;;;;95.40;12.97;;;7.80;99.90;;;;;;932805;151;27367;-78
2022/11/13 02:43:23;;;;;;;40.57;7.17;;;7.80;99.90;;;;;;932976;151;27485;-78
2022/11/13 02:45:50;;;;;;;32.50;6.77;;;7.70;99.90;;;;;;932662;151;27323;-78
2022/11/13 02:48:16;;;;;;;53.70;9.00;;;7.70;99.90;;;;;;934767;149;27339;-78
2022/11/13 02:50:43;;;;;;;42.43;7.20;;;7.70;99.90;;;;;;934316;149;27372;-79
2022/11/13 02:53:09;;;;;;;46.50;8.23;;;7.70;99.90;;;;;;934257;149;27659;-79
2022/11/13 02:55:36;;;;;;;63.67;9.60;;;7.60;99.90;;;;;;933383;148;27662;-79
2022/11/13 02:58:02;;;;;;;62.73;8.33;;;7.60;99.90;;;;;;934125;149;27316;-79
2022/11/13 03:00:29;;;;;;;38.00;6.60;;;7.60;99.90;;;;;;935047;149;27335;-79
2022/11/13 03:02:56;;;;;;;18.77;5.70;;;7.50;99.90;;;;;;932808;150;27516;-78
2022/11/13 03:05:22;;;;;;;29.10;6.37;;;7.50;99.90;;;;;;938733;151;27319;-79
2022/11/13 03:07:49;;;;;;;28.17;6.40;;;7.50;99.90;;;;;;923222;154;27443;-79
2022/11/13 03:10:15;;;;;;;39.77;7.50;;;7.50;99.90;;;;;;923022;153;27347;-78
2022/11/13 03:12:42;;;;;;;33.80;6.50;;;7.50;99.90;;;;;;923185;153;27377;-78
2022/11/13 03:15:09;;;;;;;30.77;7.17;;;7.40;99.90;;;;;;926462;152;27394;-78
2022/11/13 03:17:35;;;;;;;38.17;7.90;;;7.40;99.90;;;;;;927449;152;27384;-78
2022/11/13 03:20:02;;;;;;;36.83;6.93;;;7.40;99.90;;;;;;922853;154;27442;-78
2022/11/13 03:22:28;;;;;;;34.93;6.87;;;7.40;99.90;;;;;;938945;151;27300;-78
2022/11/13 03:24:55;;;;;;;31.60;6.20;;;7.40;99.90;;;;;;938812;152;27353;-78
2022/11/13 03:27:21;;;;;;;53.83;8.03;;;7.30;99.90;;;;;;939163;152;27419;-78
2022/11/13 03:29:48;;;;;;;50.33;7.90;;;7.30;99.90;;;;;;932571;151;27864;-78
2022/11/13 03:32:15;;;;;;;43.17;7.40;;;7.30;99.90;;;;;;931818;151;27372;-78
2022/11/13 03:34:41;;;;;;;20.03;4.67;;;7.20;99.90;;;;;;932301;154;27438;-79
2022/11/13 03:37:08;;;;;;;33.70;5.97;;;7.20;99.90;;;;;;932070;151;27337;-79
2022/11/13 03:39:34;;;;;;;35.30;6.37;;;7.20;99.90;;;;;;932274;152;27378;-79
2022/11/13 03:42:01;;;;;;;30.17;5.83;;;7.10;99.90;;;;;;931879;152;27388;-79
2022/11/13 03:44:28;;;;;;;63.73;9.80;;;7.00;99.90;;;;;;932362;152;27940;-79
2022/11/13 03:46:54;;;;;;;57.27;8.40;;;7.00;99.90;;;;;;932069;152;27457;-79
2022/11/13 03:49:21;;;;;;;56.23;9.37;;;6.90;99.90;;;;;;931317;152;27328;-79
2022/11/13 03:51:47;;;;;;;55.63;10.97;;;6.90;99.90;;;;;;932153;152;27422;-79
2022/11/13 03:54:14;;;;;;;33.50;8.97;;;6.80;99.90;;;;;;932552;152;27375;-79
2022/11/13 03:56:41;;;;;;;45.00;10.63;;;6.80;99.90;;;;;;932042;152;27469;-79
2022/11/13 03:59:07;;;;;;;44.27;9.83;;;6.80;99.90;;;;;;932093;152;27347;-79
2022/11/13 04:01:34;;;;;;;53.67;11.30;;;6.70;99.90;;;;;;932582;152;27329;-79
2022/11/13 04:04:00;;;;;;;43.63;10.63;;;6.70;99.90;;;;;;936287;151;27338;-79
2022/11/13 04:06:27;;;;;;;27.17;6.20;;;6.70;99.90;;;;;;934957;151;27486;-79
2022/11/13 04:08:53;;;;;;;35.67;9.33;;;6.60;99.90;;;;;;935503;151;27541;-78
2022/11/13 04:11:20;;;;;;;70.27;11.30;;;6.60;99.90;;;;;;935210;151;27451;-79
2022/11/13 04:13:47;;;;;;;61.20;11.63;;;6.60;99.90;;;;;;935407;151;27435;-79
2022/11/13 04:16:13;;;;;;;27.17;8.87;;;6.60;99.90;;;;;;935269;151;27356;-79
2022/11/13 04:18:40;;;;;;;27.87;8.63;;;6.50;99.90;;;;;;935015;151;27465;-79
2022/11/13 04:21:06;;;;;;;57.83;10.07;;;6.60;99.90;;;;;;934892;151;27512;-79
2022/11/13 04:23:33;;;;;;;36.83;8.20;;;6.50;99.90;;;;;;934670;151;27946;-79
2022/11/13 04:26:00;;;;;;;40.77;10.50;;;6.50;99.90;;;;;;935667;151;27285;-78
2022/11/13 04:28:26;;;;;;;44.37;10.97;;;6.50;99.90;;;;;;935196;151;27376;-79
2022/11/13 04:30:53;;;;;;;43.87;10.20;;;6.50;99.90;;;;;;935318;151;27395;-79
2022/11/13 04:33:19;;;;;;;35.63;8.43;;;6.50;99.90;;;;;;935240;151;27480;-79
2022/11/13 04:35:47;;;;;;;29.97;6.73;;;6.50;99.90;;;;;;935220;151;28933;-79
2022/11/13 04:38:13;;;;;;;47.43;7.80;;;6.50;99.90;;;;;;935065;151;27352;-79
2022/11/13 04:40:39;;;;;;;22.27;5.73;;;6.40;99.90;;;;;;935090;151;27851;-79
2022/11/13 04:43:06;;;;;;;23.13;6.43;;;6.40;99.90;;;;;;935097;151;27421;-79
2022/11/13 04:45:32;;;;;;;23.53;5.10;;;6.40;99.90;;;;;;935124;151;27403;-79
2022/11/13 04:47:59;;;;;;;53.83;9.07;;;6.40;99.90;;;;;;935331;151;27382;-79
2022/11/13 04:50:25;;;;;;;41.83;7.40;;;6.40;99.90;;;;;;935474;151;27433;-79
2022/11/13 04:52:52;;;;;;;42.23;7.23;;;6.40;99.90;;;;;;935098;151;27461;-79
2022/11/13 04:55:19;;;;;;;45.77;7.40;;;6.40;99.90;;;;;;936140;151;27356;-79
2022/11/13 04:57:45;;;;;;;26.13;4.77;;;6.30;99.90;;;;;;935711;151;28986;-79
2022/11/13 05:00:12;;;;;;;30.07;5.80;;;6.30;99.90;;;;;;935738;151;27487;-79
2022/11/13 05:02:38;;;;;;;43.43;7.63;;;6.30;99.90;;;;;;934066;151;27986;-79
2022/11/13 05:05:05;;;;;;;18.97;4.90;;;6.30;99.90;;;;;;928619;151;27450;-79
2022/11/13 05:07:32;;;;;;;22.17;5.57;;;6.20;99.90;;;;;;927550;151;27443;-79
2022/11/13 05:09:58;;;;;;;22.80;5.93;;;6.20;99.90;;;;;;928170;151;27338;-79
2022/11/13 05:12:25;;;;;;;17.30;4.50;;;6.20;99.90;;;;;;928613;151;27325;-79
2022/11/13 05:14:51;;;;;;;13.10;4.43;;;6.10;99.90;;;;;;927979;151;27401;-78
2022/11/13 05:17:18;;;;;;;20.30;4.80;;;6.10;99.90;;;;;;927853;151;27337;-79
2022/11/13 05:19:45;;;;;;;13.27;3.87;;;6.00;99.90;;;;;;927689;151;27472;-79
2022/11/13 05:22:11;;;;;;;11.63;4.10;;;6.00;99.90;;;;;;928488;151;27434;-78
2022/11/13 05:24:38;;;;;;;20.63;6.03;;;6.00;99.90;;;;;;928981;151;27388;-79
2022/11/13 05:27:04;;;;;;;23.53;5.03;;;6.00;99.90;;;;;;928402;151;27388;-79
2022/11/13 05:29:31;;;;;;;18.23;4.63;;;5.90;99.90;;;;;;927929;151;27344;-78
2022/11/13 05:31:58;;;;;;;11.13;3.77;;;5.90;99.90;;;;;;928085;151;27313;-79
2022/11/13 05:34:24;;;;;;;8.93;3.60;;;5.90;99.90;;;;;;928102;151;27365;-79
2022/11/13 05:36:51;;;;;;;10.80;3.73;;;5.90;99.90;;;;;;928671;151;27353;-79
2022/11/13 05:39:17;;;;;;;13.40;3.90;;;5.90;99.90;;;;;;929105;151;27412;-78
2022/11/13 05:41:44;;;;;;;24.13;5.43;;;5.90;99.90;;;;;;928141;151;27413;-79
2022/11/13 05:44:11;;;;;;;8.63;4.23;;;5.90;99.90;;;;;;928954;151;27373;-79
2022/11/13 05:46:37;;;;;;;45.23;6.97;;;5.90;99.90;;;;;;927241;151;27462;-79
2022/11/13 05:49:04;;;;;;;17.67;4.80;;;5.90;99.90;;;;;;927745;151;27334;-79
2022/11/13 05:51:30;;;;;;;26.27;6.77;;;5.90;99.90;;;;;;927803;151;27357;-79
2022/11/13 05:53:57;;;;;;;20.40;6.53;;;5.90;99.90;;;;;;927908;151;27384;-79
2022/11/13 05:56:26;;;;;;;32.00;6.37;;;5.90;99.90;;;;;;927142;151;27497;-79
2022/11/13 05:58:53;;;;;;;45.97;8.03;;;5.90;99.90;;;;;;927042;151;27544;-79
2022/11/13 06:01:19;;;;;;;19.60;5.33;;;5.90;99.90;;;;;;927862;151;27290;-79
2022/11/13 06:03:46;;;;;;;54.50;9.17;;;5.90;99.90;;;;;;929140;151;27474;-79
2022/11/13 06:06:15;;;;;;;30.77;7.20;;;5.90;99.90;;;;;;932111;152;27848;-79
2022/11/13 06:08:42;;;;;;;61.43;9.83;;;5.90;99.90;;;;;;931551;152;27474;-79
2022/11/13 06:11:09;;;;;;;48.47;8.53;;;5.90;99.90;;;;;;932357;152;27352;-79
2022/11/13 06:13:35;;;;;;;42.33;8.47;;;5.90;99.90;;;;;;932071;152;27357;-79
2022/11/13 06:16:02;;;;;;;48.63;7.17;;;5.90;99.90;;;;;;932053;152;27880;-79
2022/11/13 06:18:28;;;;;;;37.33;8.13;;;5.90;99.90;;;;;;930926;152;27384;-79
2022/11/13 06:20:55;;;;;;;62.30;8.37;;;5.90;99.90;;;;;;931738;152;27297;-78
2022/11/13 06:23:22;;;;;;;59.03;8.60;;;5.90;99.90;;;;;;931511;152;27437;-78
2022/11/13 06:25:48;;;;;;;45.73;8.33;;;5.90;99.90;;;;;;932118;152;27282;-79
2022/11/13 06:28:15;;;;;;;24.57;6.90;;;5.90;99.90;;;;;;932691;152;27293;-79
2022/11/13 06:30:41;;;;;;;28.67;6.17;;;5.90;99.90;;;;;;932060;152;27379;-79
2022/11/13 06:33:08;;;;;;;23.97;6.03;;;5.90;99.90;;;;;;932412;152;27471;-79
2022/11/13 06:35:35;;;;;;;23.30;5.67;;;5.90;99.90;;;;;;932797;151;27408;-78
2022/11/13 06:38:01;;;;;;;23.00;6.63;;;5.90;99.90;;;;;;932279;152;27371;-79
2022/11/13 06:40:28;;;;;;;27.97;5.50;;;5.90;99.90;;;;;;932381;152;27365;-79
2022/11/13 06:42:54;;;;;;;28.50;6.73;;;5.90;99.90;;;;;;932006;152;27403;-79
2022/11/13 06:45:21;;;;;;;31.53;6.27;;;5.90;99.90;;;;;;932121;152;27465;-79
2022/11/13 06:47:47;;;;;;;34.50;6.77;;;6.00;99.90;;;;;;932108;152;27896;-79
2022/11/13 06:50:14;;;;;;;17.10;4.93;;;5.90;99.90;;;;;;932083;152;27373;-79
2022/11/13 06:52:41;;;;;;;24.83;6.53;;;5.90;99.90;;;;;;932359;152;27329;-79
2022/11/13 06:55:07;;;;;;;35.73;6.70;;;6.00;99.90;;;;;;932275;152;27474;-79
2022/11/13 06:57:34;;;;;;;21.60;4.73;;;6.00;99.90;;;;;;932446;151;27949;-79
2022/11/13 07:00:00;;;;;;;41.07;8.37;;;6.00;99.90;;;;;;932027;152;27337;-79
2022/11/13 07:02:27;;;;;;;29.67;6.10;;;6.00;99.90;;;;;;931949;152;27357;-79
2022/11/13 07:04:54;;;;;;;29.73;6.07;;;6.00;99.90;;;;;;931298;152;27520;-79
2022/11/13 07:07:20;;;;;;;23.93;6.33;;;6.00;99.90;;;;;;933022;152;27313;-79
2022/11/13 07:09:47;;;;;;;28.10;6.23;;;6.00;99.90;;;;;;932089;152;27439;-79
2022/11/13 07:12:13;;;;;;;20.87;5.07;;;6.10;99.90;;;;;;932831;152;27853;-79
2022/11/13 07:14:40;;;;;;;29.37;5.10;;;6.10;99.90;;;;;;931907;152;28130;-78
2022/11/13 07:17:06;;;;;;;30.50;6.70;;;6.10;99.90;;;;;;932527;152;27437;-79
2022/11/13 07:19:33;;;;;;;22.33;5.60;;;6.20;99.90;;;;;;932053;152;27367;-79
2022/11/13 07:22:00;;;;;;;24.37;5.93;;;6.20;99.90;;;;;;933043;152;27477;-79
2022/11/13 07:24:26;;;;;;;32.77;6.93;;;6.30;99.90;;;;;;932183;152;27363;-78
2022/11/13 07:26:53;;;;;;;14.30;5.53;;;6.30;99.90;;;;;;931935;152;27677;-79
2022/11/13 07:29:19;;;;;;;24.10;6.37;;;6.40;99.90;;;;;;931920;152;27385;-79
2022/11/13 07:31:46;;;;;;;33.33;7.60;;;6.40;99.90;;;;;;932158;152;27336;-79
2022/11/13 07:34:13;;;;;;;30.27;7.17;;;6.50;99.90;;;;;;931999;152;27292;-80
2022/11/13 07:36:39;;;;;;;31.77;7.93;;;6.60;99.90;;;;;;931651;152;27388;-79
2022/11/13 07:39:06;;;;;;;42.37;8.60;;;6.60;99.90;;;;;;931945;152;28035;-79
2022/11/13 07:41:35;;;;;;;23.97;6.53;;;6.70;99.90;;;;;;932349;152;27402;-79
2022/11/13 07:43:59;;;;;;;32.23;7.63;;;6.80;99.90;;;;;;931204;152;27442;-79
2022/11/13 07:46:26;;;;;;;36.20;7.57;;;6.90;99.90;;;;;;932308;152;27461;-79
2022/11/13 07:48:52;;;;;;;44.33;8.37;;;6.90;99.90;;;;;;932175;152;27392;-79
2022/11/13 07:51:19;;;;;;;39.63;8.83;;;7.00;99.90;;;;;;932149;152;28281;-79
2022/11/13 07:53:45;;;;;;;47.03;7.80;;;7.10;99.90;;;;;;932173;152;27360;-79
2022/11/13 07:56:12;;;;;;;48.93;8.60;;;7.20;99.90;;;;;;932464;152;27336;-79
2022/11/13 07:58:38;;;;;;;22.53;7.37;;;7.30;99.90;;;;;;931549;152;27349;-79
2022/11/13 08:01:05;;;;;;;36.20;7.50;;;7.30;99.90;;;;;;932115;152;27488;-79
2022/11/13 08:03:32;;;;;;;30.80;6.83;;;7.40;99.90;;;;;;932550;152;27801;-79
2022/11/13 08:06:01;;;;;;;16.23;5.97;;;7.50;99.90;;;;;;931497;152;27379;-78
2022/11/13 08:08:28;;;;;;;25.97;7.00;;;7.60;99.90;;;;;;931697;152;27365;-78
2022/11/13 08:10:54;;;;;;;29.67;7.60;;;7.70;99.90;;;;;;932656;152;27353;-79
2022/11/13 08:13:21;;;;;;;41.03;8.73;;;7.70;99.90;;;;;;932306;152;27368;-79
2022/11/13 08:15:47;;;;;;;34.57;7.87;;;7.80;99.90;;;;;;932608;152;27387;-79
2022/11/13 08:18:14;;;;;;;29.00;8.03;;;7.90;99.90;;;;;;932506;152;28550;-79
2022/11/13 08:20:41;;;;;;;30.80;9.07;;;7.90;99.90;;;;;;931894;152;27373;-80
2022/11/13 08:23:07;;;;;;;19.13;7.47;;;8.00;99.90;;;;;;931993;152;27348;-79
2022/11/13 08:25:34;;;;;;;23.67;8.37;;;8.00;99.90;;;;;;931343;152;27373;-79
2022/11/13 08:28:00;;;;;;;28.33;8.17;;;8.10;99.90;;;;;;932001;152;27388;-79
2022/11/13 08:30:27;;;;;;;25.30;7.23;;;8.10;99.90;;;;;;931697;152;27394;-79
2022/11/13 08:32:54;;;;;;;22.50;10.00;;;8.20;99.90;;;;;;931925;152;27414;-79
2022/11/13 08:35:20;;;;;;;31.07;9.63;;;8.20;99.90;;;;;;931890;152;27425;-79
2022/11/13 08:37:47;;;;;;;23.67;8.30;;;8.20;99.90;;;;;;931575;152;27455;-79
2022/11/13 08:40:13;;;;;;;25.13;8.37;;;8.30;99.90;;;;;;932472;152;27469;-79
2022/11/13 08:42:40;;;;;;;28.20;7.80;;;8.30;99.90;;;;;;932309;152;27395;-79
2022/11/13 08:45:08;;;;;;;32.50;7.53;;;8.30;99.90;;;;;;931868;152;27348;-79
2022/11/13 08:47:34;;;;;;;20.87;6.90;;;8.30;99.90;;;;;;931896;152;27488;-78
2022/11/13 08:50:01;;;;;;;17.83;7.23;;;8.30;99.90;;;;;;932587;152;27368;-78
2022/11/13 08:52:28;;;;;;;36.87;7.47;;;8.30;99.90;;;;;;932005;152;27438;-79
2022/11/13 08:54:54;;;;;;;22.10;6.27;;;8.40;99.90;;;;;;932351;152;27333;-79
2022/11/13 08:57:21;;;;;;;44.57;7.50;;;8.40;99.90;;;;;;932133;152;27418;-79
2022/11/13 08:59:47;;;;;;;25.33;7.33;;;8.40;99.90;;;;;;931907;152;27383;-80
2022/11/13 09:02:14;;;;;;;43.60;8.37;;;8.50;99.90;;;;;;931823;152;27524;-79
2022/11/13 09:04:41;;;;;;;20.30;6.33;;;8.50;99.90;;;;;;931429;152;27795;-79
2022/11/13 09:07:07;;;;;;;55.87;8.97;;;8.60;99.90;;;;;;929737;150;27813;-80
2022/11/13 09:09:34;;;;;;;27.13;7.10;;;8.60;99.90;;;;;;929519;152;27434;-79
2022/11/13 09:12:00;;;;;;;28.37;7.70;;;8.60;99.90;;;;;;925329;153;27462;-79
2022/11/13 09:14:27;;;;;;;48.77;8.53;;;8.70;99.90;;;;;;928477;153;27364;-78
2022/11/13 09:16:53;;;;;;;32.53;7.47;;;8.70;99.90;;;;;;927727;150;28291;-79
2022/11/13 09:19:20;;;;;;;15.53;7.40;;;8.70;99.90;;;;;;924079;153;27385;-79
2022/11/13 09:21:47;;;;;;;21.97;7.00;;;8.80;99.90;;;;;;927599;153;27393;-78
2022/11/13 09:24:13;;;;;;;48.40;8.87;;;8.80;99.90;;;;;;926406;152;27865;-79
2022/11/13 09:26:40;;;;;;;28.13;7.90;;;8.90;99.90;;;;;;925748;153;27384;-78
2022/11/13 09:29:06;;;;;;;12.03;6.93;;;8.90;99.90;;;;;;927174;153;28054;-78
2022/11/13 09:31:33;;;;;;;17.40;6.80;;;9.00;99.90;;;;;;926063;153;27371;-78
2022/11/13 09:34:00;;;;;;;38.40;9.67;;;9.10;99.90;;;;;;928107;153;27318;-79
2022/11/13 09:36:26;;;;;;;39.03;10.60;;;9.20;99.90;;;;;;927847;152;27447;-79
2022/11/13 09:38:53;;;;;;;31.37;8.90;;;9.30;99.90;;;;;;926188;153;27371;-79
2022/11/13 09:41:26;;;;;;;12.30;7.43;;;9.40;99.90;;;;;;928003;153;27377;-79
2022/11/13 09:43:52;;;;;;;13.03;6.90;;;9.50;99.90;;;;;;926886;150;27342;-79
2022/11/13 09:46:37;;;;;;;38.83;8.80;;;9.60;99.90;;;;;;926479;153;27345;-79
2022/11/13 09:49:22;;;;;;;22.30;7.37;;;9.70;99.90;;;;;;926181;153;27427;-79
2022/11/13 09:52:10;;;;;;;29.40;7.10;;;9.80;99.90;;;;;;927162;153;27458;-79
2022/11/13 09:54:36;;;;;;;22.17;7.00;;;9.80;99.90;;;;;;927356;153;29184;-79
2022/11/13 09:57:15;;;;;;;23.80;7.40;;;9.90;99.90;;;;;;927837;153;27461;-79
2022/11/13 09:59:50;;;;;;;26.60;8.60;;;10.00;99.90;;;;;;924682;153;27376;-79
2022/11/13 10:02:20;;;;;;;32.37;7.63;;;10.00;99.90;;;;;;924159;152;27374;-78
2022/11/13 10:05:04;;;;;;;27.33;7.57;;;10.10;99.90;;;;;;924412;151;27496;-78
2022/11/13 10:07:31;;;;;;;12.13;6.77;;;10.10;99.90;;;;;;927553;151;27424;-80
2022/11/13 10:10:06;;;;;;;9.17;6.97;;;10.20;99.90;;;;;;909470;151;27385;-80
2022/11/13 10:12:33;;;;;;;12.40;6.90;;;10.20;99.90;;;;;;929636;148;27467;-81
2022/11/13 10:15:02;;;;;;;26.43;7.73;;;10.30;99.90;;;;;;930764;149;27339;-80
2022/11/13 10:17:41;;;;;;;13.20;8.00;;;10.40;99.90;;;;;;930372;148;27434;-79
2022/11/13 10:20:09;;;;;;;17.30;8.43;;;10.50;99.90;;;;;;929548;151;27474;-78
2022/11/13 10:22:49;;;;;;;10.47;7.00;;;10.60;99.90;;;;;;923984;151;28226;-79
2022/11/13 10:25:15;;;;;;;9.43;6.40;;;10.70;99.90;;;;;;928909;151;27365;-80
2022/11/13 10:27:42;;;;;;;8.43;6.60;;;10.80;99.90;;;;;;929412;151;27443;-79
2022/11/13 10:30:12;;;;;;;11.40;6.60;;;11.00;99.90;;;;;;928950;151;27397;-78
2022/11/13 10:32:38;;;;;;;21.57;9.00;;;11.10;99.90;;;;;;927886;151;27474;-79
2022/11/13 10:35:05;;;;;;;11.47;7.57;;;11.30;99.90;;;;;;928187;151;27392;-78
2022/11/13 10:37:58;;;;;;;13.23;9.53;;;11.40;99.90;;;;;;930715;151;27396;-79
2022/11/13 10:40:25;;;;;;;12.37;8.37;;;11.50;99.90;;;;;;928794;151;27835;-79
2022/11/13 10:42:52;;;;;;;8.83;7.93;;;11.60;99.90;;;;;;928409;151;27365;-78
2022/11/13 10:45:18;;;;;;;9.00;7.80;;;11.60;99.90;;;;;;927893;151;27344;-79
2022/11/13 10:47:51;;;;;;;11.83;9.53;;;11.70;99.90;;;;;;927968;151;27459;-78
2022/11/13 10:50:23;;;;;;;12.80;9.40;;;11.70;99.90;;;;;;927936;151;27407;-79
2022/11/13 10:52:50;;;;;;;12.63;8.50;;;11.70;99.90;;;;;;926958;151;27822;-79
2022/11/13 10:55:22;;;;;;;13.27;9.33;;;11.80;99.90;;;;;;928811;151;27322;-79
2022/11/13 10:57:54;;;;;;;10.97;9.33;;;11.80;99.90;;;;;;927319;151;27388;-79
2022/11/13 11:00:22;;;;;;;10.73;9.07;;;11.80;99.90;;;;;;927710;151;27397;-79
2022/11/13 11:02:49;;;;;;;10.83;7.60;;;11.90;99.90;;;;;;928450;151;27407;-78
2022/11/13 11:05:21;;;;;;;10.13;7.17;;;11.90;99.90;;;;;;927845;151;27333;-78
2022/11/13 11:07:48;;;;;;;11.10;8.60;;;11.90;99.90;;;;;;927349;151;27389;-78
2022/11/13 11:10:20;;;;;;;12.50;8.50;;;11.90;99.90;;;;;;927945;150;27681;-78
2022/11/13 11:12:53;;;;;;;8.23;6.90;;;11.90;99.90;;;;;;928290;151;27321;-79
2022/11/13 11:15:28;;;;;;;7.10;6.40;;;11.90;99.90;;;;;;928222;151;27400;-78
2022/11/13 11:17:58;;;;;;;7.40;6.50;;;11.80;99.90;;;;;;926599;151;27734;-79
2022/11/13 11:20:39;;;;;;;9.83;8.93;;;11.80;99.90;;;;;;927164;151;27989;-79
2022/11/13 11:23:24;;;;;;;7.50;6.90;;;11.80;99.90;;;;;;916272;151;27469;-80
2022/11/13 11:26:03;;;;;;;8.30;7.60;;;11.70;99.90;;;;;;926500;151;27450;-80
2022/11/13 11:28:29;;;;;;;9.00;8.20;;;11.60;99.90;;;;;;925610;151;27392;-79
2022/11/13 11:31:02;;;;;;;9.60;8.70;;;11.50;99.90;;;;;;926397;151;27379;-79
2022/11/13 11:33:28;;;;;;;9.33;8.43;;;11.30;99.90;;;;;;912285;151;27321;-79
2022/11/13 11:36:03;;;;;;;10.60;9.53;;;11.20;99.90;;;;;;926003;151;27446;-79
2022/11/13 11:38:39;;;;;;;11.73;9.93;;;11.10;99.90;;;;;;926632;151;27396;-80
2022/11/13 11:41:05;;;;;;;11.67;10.47;;;11.00;99.90;;;;;;920815;151;27428;-80
2022/11/13 11:43:44;;;;;;;10.70;9.70;;;10.90;99.90;;;;;;926879;151;27440;-79
2022/11/13 11:46:14;;;;;;;10.73;9.73;;;10.80;99.90;;;;;;928971;150;27431;-80
2022/11/13 11:48:40;;;;;;;9.80;8.90;;;10.70;99.90;;;;;;928073;151;27396;-80
2022/11/13 11:51:12;;;;;;;9.73;8.73;;;10.70;99.90;;;;;;928715;151;27384;-79
2022/11/13 11:53:39;;;;;;;10.50;9.50;;;10.60;99.90;;;;;;927043;151;27367;-80
2022/11/13 11:56:15;;;;;;;9.13;8.23;;;10.60;99.90;;;;;;924195;151;27380;-80
2022/11/13 11:59:00;;;;;;;10.60;9.27;;;10.60;99.90;;;;;;927511;151;27376;-80
2022/11/13 12:02:00;;;;;;;9.20;8.30;;;10.60;99.90;;;;;;927510;151;27376;-79
2022/11/13 12:04:53;;;;;;;9.40;8.50;;;10.50;99.90;;;;;;928212;151;27393;-80
2022/11/13 12:07:23;;;;;;;9.63;8.73;;;10.50;99.90;;;;;;928240;151;27943;-79
2022/11/13 12:09:49;;;;;;;9.97;8.73;;;10.50;99.90;;;;;;929769;152;27539;-79
2022/11/13 12:12:37;;;;;;;9.80;8.90;;;10.50;99.90;;;;;;930759;151;27454;-79
2022/11/13 12:15:25;;;;;;;9.00;8.10;;;10.50;99.90;;;;;;931958;152;27298;-80
2022/11/13 12:17:55;;;;;;;9.60;8.70;;;10.50;99.90;;;;;;932998;152;27369;-80
2022/11/13 12:20:24;;;;;;;10.17;9.17;;;10.50;99.90;;;;;;931446;151;27495;-80
2022/11/13 12:22:57;;;;;;;10.23;9.20;;;10.50;99.90;;;;;;932101;152;27400;-79
2022/11/13 12:25:32;;;;;;;9.17;7.57;;;10.60;99.90;;;;;;930329;152;27325;-80
2022/11/13 12:28:11;;;;;;;8.23;7.43;;;10.60;99.90;;;;;;931397;152;27322;-80
2022/11/13 12:30:49;;;;;;;8.27;7.30;;;10.60;99.90;;;;;;932234;152;27368;-80
2022/11/13 12:33:40;;;;;;;9.23;8.23;;;10.70;99.90;;;;;;931689;152;27348;-80
2022/11/13 12:36:06;;;;;;;7.33;6.57;;;10.70;99.90;;;;;;930997;152;27365;-80
2022/11/13 12:38:33;;;;;;;7.33;6.47;;;10.80;99.90;;;;;;931853;152;27446;-79
2022/11/13 12:41:15;;;;;;;7.07;6.47;;;10.80;99.90;;;;;;931398;152;27433;-79
2022/11/13 12:43:59;;;;;;;9.73;7.23;;;10.80;99.90;;;;;;931744;152;27418;-80
2022/11/13 12:46:32;;;;;;;7.23;6.53;;;10.90;99.90;;;;;;931955;152;27386;-80
2022/11/13 12:48:59;;;;;;;7.90;6.23;;;10.90;99.90;;;;;;932380;152;27906;-80
2022/11/13 12:51:25;;;;;;;7.60;6.90;;;11.00;99.90;;;;;;932321;152;27487;-79